sensor_id;sensor_type;location;lat;lon;timestamp;pressure;altitude;pressure_sealevel;temperature;humidity
66176;BME280;52977;44.816;20.538;2023-12-14T00:02:18;98481.06;;;10.57;100.00
66176;BME280;52977;44.816;20.538;2023-12-14T00:04:44;98463.56;;;10.58;100.00
66176;BME280;52977;44.816;20.538;2023-12-14T00:07:10;98473.53;;;10.22;100.00
66176;BME280;52977;44.816;20.538;2023-12-14T00:09:40;98467.28;;;10.21;100.00
66176;BME280;52977;44.816;20.538;2023-12-14T00:12:06;98459.75;;;10.02;100.00
66176;BME280;52977;44.816;20.538;2023-12-14T00:14:33;98483.59;;;10.05;100.00
66176;BME280;52977;44.816;20.538;2023-12-14T00:17:02;98508.88;;;10.18;100.00
66176;BME280;52977;44.816;20.538;2023-12-14T00:19:28;98488.81;;;10.11;100.00
66176;BME280;52977;44.816;20.538;2023-12-14T00:21:55;98473.59;;;10.09;100.00
66176;BME280;52977;44.816;20.538;2023-12-14T00:24:21;98514.59;;;10.41;100.00
66176;BME280;52977;44.816;20.538;2023-12-14T00:26:47;98495.41;;;10.25;100.00
66176;BME280;52977;44.816;20.538;2023-12-14T00:29:14;98558.47;;;10.65;100.00
66176;BME280;52977;44.816;20.538;2023-12-14T00:31:40;98564.09;;;10.72;100.00
66176;BME280;52977;44.816;20.538;2023-12-14T00:34:06;98532.03;;;10.53;100.00
66176;BME280;52977;44.816;20.538;2023-12-14T00:36:33;98476.31;;;10.25;100.00
66176;BME280;52977;44.816;20.538;2023-12-14T00:38:59;98555.16;;;10.59;100.00
66176;BME280;52977;44.816;20.538;2023-12-14T00:41:26;98543.81;;;10.57;100.00
66176;BME280;52977;44.816;20.538;2023-12-14T00:43:52;98505.72;;;10.32;100.00
66176;BME280;52977;44.816;20.538;2023-12-14T00:46:19;98525.31;;;10.50;100.00
66176;BME280;52977;44.816;20.538;2023-12-14T00:48:45;98552.41;;;10.43;100.00
66176;BME280;52977;44.816;20.538;2023-12-14T00:51:11;98513.00;;;10.12;100.00
66176;BME280;52977;44.816;20.538;2023-12-14T00:53:37;98566.00;;;10.55;100.00
66176;BME280;52977;44.816;20.538;2023-12-14T00:56:03;98476.16;;;9.90;100.00
66176;BME280;52977;44.816;20.538;2023-12-14T00:58:30;98564.25;;;10.63;100.00
66176;BME280;52977;44.816;20.538;2023-12-14T01:00:56;98557.81;;;10.55;100.00
66176;BME280;52977;44.816;20.538;2023-12-14T01:03:22;98601.00;;;10.82;100.00
66176;BME280;52977;44.816;20.538;2023-12-14T01:05:49;98542.16;;;10.52;100.00
66176;BME280;52977;44.816;20.538;2023-12-14T01:08:15;98549.03;;;10.62;100.00
66176;BME280;52977;44.816;20.538;2023-12-14T01:10:42;98581.53;;;10.83;100.00
66176;BME280;52977;44.816;20.538;2023-12-14T01:13:08;98592.00;;;10.81;100.00
66176;BME280;52977;44.816;20.538;2023-12-14T01:15:35;98537.31;;;10.33;100.00
66176;BME280;52977;44.816;20.538;2023-12-14T01:18:01;98617.63;;;10.76;100.00
66176;BME280;52977;44.816;20.538;2023-12-14T01:20:29;98567.78;;;10.35;100.00
66176;BME280;52977;44.816;20.538;2023-12-14T01:22:55;98586.16;;;10.51;100.00
66176;BME280;52977;44.816;20.538;2023-12-14T01:25:22;98584.50;;;10.62;100.00
66176;BME280;52977;44.816;20.538;2023-12-14T01:27:48;98601.78;;;10.66;100.00
66176;BME280;52977;44.816;20.538;2023-12-14T01:30:15;98601.22;;;10.60;100.00
66176;BME280;52977;44.816;20.538;2023-12-14T01:32:41;98574.84;;;10.24;100.00
66176;BME280;52977;44.816;20.538;2023-12-14T01:35:07;98532.16;;;10.16;100.00
66176;BME280;52977;44.816;20.538;2023-12-14T01:37:34;98589.56;;;10.48;100.00
66176;BME280;52977;44.816;20.538;2023-12-14T01:40:00;98543.34;;;10.11;100.00
66176;BME280;52977;44.816;20.538;2023-12-14T01:42:27;98579.09;;;10.50;100.00
66176;BME280;52977;44.816;20.538;2023-12-14T01:44:53;98559.28;;;10.37;100.00
66176;BME280;52977;44.816;20.538;2023-12-14T01:47:19;98557.66;;;10.64;100.00
66176;BME280;52977;44.816;20.538;2023-12-14T01:49:45;98581.84;;;10.66;100.00
66176;BME280;52977;44.816;20.538;2023-12-14T01:52:12;98530.16;;;10.41;100.00
66176;BME280;52977;44.816;20.538;2023-12-14T01:54:38;98576.75;;;10.64;100.00
66176;BME280;52977;44.816;20.538;2023-12-14T01:57:04;98553.06;;;10.68;100.00
66176;BME280;52977;44.816;20.538;2023-12-14T01:59:31;98496.88;;;10.35;100.00
66176;BME280;52977;44.816;20.538;2023-12-14T02:01:57;98553.25;;;10.75;100.00
66176;BME280;52977;44.816;20.538;2023-12-14T02:04:26;98525.69;;;10.49;100.00
66176;BME280;52977;44.816;20.538;2023-12-14T02:06:51;98541.81;;;10.70;100.00
66176;BME280;52977;44.816;20.538;2023-12-14T02:09:20;98519.44;;;10.48;100.00
66176;BME280;52977;44.816;20.538;2023-12-14T02:11:47;98579.16;;;10.82;100.00
66176;BME280;52977;44.816;20.538;2023-12-14T02:14:13;98549.22;;;10.69;100.00
66176;BME280;52977;44.816;20.538;2023-12-14T02:16:42;98547.09;;;10.78;100.00
66176;BME280;52977;44.816;20.538;2023-12-14T02:19:08;98504.63;;;10.49;100.00
66176;BME280;52977;44.816;20.538;2023-12-14T02:21:35;98467.13;;;10.30;100.00
66176;BME280;52977;44.816;20.538;2023-12-14T02:24:01;98550.88;;;10.74;100.00
66176;BME280;52977;44.816;20.538;2023-12-14T02:26:27;98513.53;;;10.46;100.00
66176;BME280;52977;44.816;20.538;2023-12-14T02:28:54;98529.22;;;10.65;100.00
66176;BME280;52977;44.816;20.538;2023-12-14T02:31:20;98543.50;;;10.74;100.00
66176;BME280;52977;44.816;20.538;2023-12-14T02:33:46;98542.09;;;10.81;100.00
66176;BME280;52977;44.816;20.538;2023-12-14T02:36:13;98535.63;;;10.73;100.00
66176;BME280;52977;44.816;20.538;2023-12-14T02:38:39;98510.13;;;10.65;100.00
66176;BME280;52977;44.816;20.538;2023-12-14T02:41:06;98540.47;;;10.80;100.00
66176;BME280;52977;44.816;20.538;2023-12-14T02:43:32;98506.50;;;10.61;100.00
66176;BME280;52977;44.816;20.538;2023-12-14T02:45:59;98543.22;;;10.80;100.00
66176;BME280;52977;44.816;20.538;2023-12-14T02:48:28;98496.63;;;10.40;100.00
66176;BME280;52977;44.816;20.538;2023-12-14T02:50:58;98556.16;;;10.83;100.00
66176;BME280;52977;44.816;20.538;2023-12-14T02:53:26;98560.47;;;10.84;100.00
66176;BME280;52977;44.816;20.538;2023-12-14T02:55:53;98538.03;;;10.74;100.00
66176;BME280;52977;44.816;20.538;2023-12-14T02:58:19;98523.50;;;10.70;100.00
66176;BME280;52977;44.816;20.538;2023-12-14T03:00:46;98525.00;;;10.68;100.00
66176;BME280;52977;44.816;20.538;2023-12-14T03:03:12;98539.09;;;10.86;100.00
66176;BME280;52977;44.816;20.538;2023-12-14T03:05:38;98500.75;;;10.50;100.00
66176;BME280;52977;44.816;20.538;2023-12-14T03:08:05;98511.97;;;10.61;100.00
66176;BME280;52977;44.816;20.538;2023-12-14T03:10:31;98478.09;;;10.34;100.00
66176;BME280;52977;44.816;20.538;2023-12-14T03:12:57;98543.94;;;10.76;100.00
66176;BME280;52977;44.816;20.538;2023-12-14T03:15:24;98552.66;;;10.82;100.00
66176;BME280;52977;44.816;20.538;2023-12-14T03:17:50;98562.44;;;10.83;100.00
66176;BME280;52977;44.816;20.538;2023-12-14T03:20:15;98559.41;;;10.72;100.00
66176;BME280;52977;44.816;20.538;2023-12-14T03:22:42;98547.63;;;10.68;100.00
66176;BME280;52977;44.816;20.538;2023-12-14T03:25:09;98494.81;;;10.32;100.00
66176;BME280;52977;44.816;20.538;2023-12-14T03:27:38;98525.78;;;10.52;100.00
66176;BME280;52977;44.816;20.538;2023-12-14T03:30:05;98555.81;;;10.68;100.00
66176;BME280;52977;44.816;20.538;2023-12-14T03:32:34;98531.59;;;10.51;100.00
66176;BME280;52977;44.816;20.538;2023-12-14T03:35:00;98543.56;;;10.62;100.00
66176;BME280;52977;44.816;20.538;2023-12-14T03:37:27;98526.75;;;10.60;100.00
66176;BME280;52977;44.816;20.538;2023-12-14T03:39:53;98562.31;;;10.80;100.00
66176;BME280;52977;44.816;20.538;2023-12-14T03:42:19;98536.16;;;10.63;100.00
66176;BME280;52977;44.816;20.538;2023-12-14T03:44:46;98577.09;;;10.78;100.00
66176;BME280;52977;44.816;20.538;2023-12-14T03:47:12;98592.16;;;10.88;100.00
66176;BME280;52977;44.816;20.538;2023-12-14T03:49:38;98596.44;;;10.86;100.00
66176;BME280;52977;44.816;20.538;2023-12-14T03:52:05;98567.44;;;10.65;100.00
66176;BME280;52977;44.816;20.538;2023-12-14T03:54:31;98565.34;;;10.74;100.00
66176;BME280;52977;44.816;20.538;2023-12-14T03:56:57;98578.09;;;10.86;100.00
66176;BME280;52977;44.816;20.538;2023-12-14T03:59:23;98557.41;;;10.69;100.00
66176;BME280;52977;44.816;20.538;2023-12-14T04:01:49;98535.34;;;10.46;100.00
66176;BME280;52977;44.816;20.538;2023-12-14T04:04:16;98565.22;;;10.55;100.00
66176;BME280;52977;44.816;20.538;2023-12-14T04:06:42;98591.63;;;10.67;100.00
66176;BME280;52977;44.816;20.538;2023-12-14T04:09:08;98629.44;;;10.81;100.00
66176;BME280;52977;44.816;20.538;2023-12-14T04:11:36;98607.31;;;10.70;100.00
66176;BME280;52977;44.816;20.538;2023-12-14T04:14:02;98636.63;;;10.73;100.00
66176;BME280;52977;44.816;20.538;2023-12-14T04:16:28;98644.13;;;10.76;100.00
66176;BME280;52977;44.816;20.538;2023-12-14T04:18:55;98630.03;;;10.74;100.00
66176;BME280;52977;44.816;20.538;2023-12-14T04:21:22;98589.66;;;10.51;100.00
66176;BME280;52977;44.816;20.538;2023-12-14T04:23:49;98614.25;;;10.67;100.00
66176;BME280;52977;44.816;20.538;2023-12-14T04:26:15;98567.91;;;10.39;100.00
66176;BME280;52977;44.816;20.538;2023-12-14T04:28:42;98592.41;;;10.51;100.00
66176;BME280;52977;44.816;20.538;2023-12-14T04:31:09;98610.91;;;10.58;100.00
66176;BME280;52977;44.816;20.538;2023-12-14T04:33:36;98617.16;;;10.58;100.00
66176;BME280;52977;44.816;20.538;2023-12-14T04:36:03;98610.50;;;10.43;100.00
66176;BME280;52977;44.816;20.538;2023-12-14T04:38:29;98609.94;;;10.38;100.00
66176;BME280;52977;44.816;20.538;2023-12-14T04:40:56;98608.03;;;10.38;100.00
66176;BME280;52977;44.816;20.538;2023-12-14T04:43:22;98624.97;;;10.60;100.00
66176;BME280;52977;44.816;20.538;2023-12-14T04:45:48;98619.09;;;10.58;100.00
66176;BME280;52977;44.816;20.538;2023-12-14T04:48:14;98615.19;;;10.59;100.00
66176;BME280;52977;44.816;20.538;2023-12-14T04:50:41;98581.44;;;10.35;100.00
66176;BME280;52977;44.816;20.538;2023-12-14T04:53:07;98503.66;;;9.85;100.00
66176;BME280;52977;44.816;20.538;2023-12-14T04:55:34;98624.97;;;10.60;100.00
66176;BME280;52977;44.816;20.538;2023-12-14T04:58:00;98596.41;;;10.41;100.00
66176;BME280;52977;44.816;20.538;2023-12-14T05:00:27;98617.25;;;10.62;100.00
66176;BME280;52977;44.816;20.538;2023-12-14T05:02:53;98595.41;;;10.62;100.00
66176;BME280;52977;44.816;20.538;2023-12-14T05:05:19;98594.25;;;10.63;100.00
66176;BME280;52977;44.816;20.538;2023-12-14T05:07:46;98609.75;;;10.59;100.00
66176;BME280;52977;44.816;20.538;2023-12-14T05:10:12;98598.09;;;10.46;100.00
66176;BME280;52977;44.816;20.538;2023-12-14T05:12:38;98570.97;;;10.37;100.00
66176;BME280;52977;44.816;20.538;2023-12-14T05:15:05;98618.50;;;10.65;100.00
66176;BME280;52977;44.816;20.538;2023-12-14T05:17:32;98544.44;;;10.22;100.00
66176;BME280;52977;44.816;20.538;2023-12-14T05:19:58;98566.84;;;10.43;100.00
66176;BME280;52977;44.816;20.538;2023-12-14T05:22:25;98603.97;;;10.60;100.00
66176;BME280;52977;44.816;20.538;2023-12-14T05:24:54;98566.78;;;10.27;100.00
66176;BME280;52977;44.816;20.538;2023-12-14T05:27:19;98591.34;;;10.56;100.00
66176;BME280;52977;44.816;20.538;2023-12-14T05:29:49;98605.09;;;10.59;100.00
66176;BME280;52977;44.816;20.538;2023-12-14T05:32:15;98630.84;;;10.74;100.00
66176;BME280;52977;44.816;20.538;2023-12-14T05:34:41;98623.09;;;10.76;100.00
66176;BME280;52977;44.816;20.538;2023-12-14T05:37:08;98647.66;;;10.76;100.00
66176;BME280;52977;44.816;20.538;2023-12-14T05:39:34;98655.41;;;10.74;100.00
66176;BME280;52977;44.816;20.538;2023-12-14T05:42:00;98654.16;;;10.72;100.00
66176;BME280;52977;44.816;20.538;2023-12-14T05:44:27;98649.84;;;10.71;100.00
66176;BME280;52977;44.816;20.538;2023-12-14T05:46:53;98662.59;;;10.67;100.00
66176;BME280;52977;44.816;20.538;2023-12-14T05:49:19;98667.47;;;10.73;100.00
66176;BME280;52977;44.816;20.538;2023-12-14T05:51:46;98611.75;;;10.34;100.00
66176;BME280;52977;44.816;20.538;2023-12-14T05:54:12;98587.66;;;10.48;100.00
66176;BME280;52977;44.816;20.538;2023-12-14T05:56:39;98601.66;;;10.63;100.00
66176;BME280;52977;44.816;20.538;2023-12-14T05:59:05;98580.69;;;10.51;100.00
66176;BME280;52977;44.816;20.538;2023-12-14T06:01:31;98640.69;;;10.79;100.00
66176;BME280;52977;44.816;20.538;2023-12-14T06:03:58;98624.28;;;10.63;100.00
66176;BME280;52977;44.816;20.538;2023-12-14T06:06:23;98657.78;;;10.76;100.00
66176;BME280;52977;44.816;20.538;2023-12-14T06:08:49;98659.69;;;10.75;100.00
66176;BME280;52977;44.816;20.538;2023-12-14T06:11:15;98673.69;;;10.74;100.00
66176;BME280;52977;44.816;20.538;2023-12-14T06:13:42;98626.50;;;10.45;100.00
66176;BME280;52977;44.816;20.538;2023-12-14T06:16:08;98612.69;;;10.25;100.00
66176;BME280;52977;44.816;20.538;2023-12-14T06:18:39;98713.59;;;10.78;100.00
66176;BME280;52977;44.816;20.538;2023-12-14T06:21:07;98698.22;;;10.58;100.00
66176;BME280;52977;44.816;20.538;2023-12-14T06:23:37;98721.34;;;10.76;100.00
66176;BME280;52977;44.816;20.538;2023-12-14T06:26:04;98643.75;;;10.21;100.00
66176;BME280;52977;44.816;20.538;2023-12-14T06:28:30;98736.84;;;10.72;100.00
66176;BME280;52977;44.816;20.538;2023-12-14T06:30:59;98730.50;;;10.56;100.00
66176;BME280;52977;44.816;20.538;2023-12-14T06:33:26;98744.81;;;10.65;100.00
66176;BME280;52977;44.816;20.538;2023-12-14T06:35:53;98709.63;;;10.35;100.00
66176;BME280;52977;44.816;20.538;2023-12-14T06:38:19;98702.03;;;10.41;100.00
66176;BME280;52977;44.816;20.538;2023-12-14T06:40:45;98749.69;;;10.72;100.00
66176;BME280;52977;44.816;20.538;2023-12-14T06:43:12;98747.31;;;10.70;100.00
66176;BME280;52977;44.816;20.538;2023-12-14T06:45:38;98753.56;;;10.71;100.00
66176;BME280;52977;44.816;20.538;2023-12-14T06:48:04;98747.63;;;10.69;100.00
66176;BME280;52977;44.816;20.538;2023-12-14T06:50:31;98727.75;;;10.68;100.00
66176;BME280;52977;44.816;20.538;2023-12-14T06:52:58;98734.44;;;10.71;100.00
66176;BME280;52977;44.816;20.538;2023-12-14T06:55:24;98724.47;;;10.63;100.00
66176;BME280;52977;44.816;20.538;2023-12-14T06:57:50;98725.91;;;10.72;100.00
66176;BME280;52977;44.816;20.538;2023-12-14T07:00:16;98734.41;;;10.83;100.00
66176;BME280;52977;44.816;20.538;2023-12-14T07:02:43;98737.84;;;10.80;100.00
66176;BME280;52977;44.816;20.538;2023-12-14T07:05:09;98766.59;;;10.90;100.00
66176;BME280;52977;44.816;20.538;2023-12-14T07:07:35;98708.78;;;10.59;100.00
66176;BME280;52977;44.816;20.538;2023-12-14T07:10:02;98751.03;;;10.78;100.00
66176;BME280;52977;44.816;20.538;2023-12-14T07:12:28;98727.75;;;10.68;100.00
66176;BME280;52977;44.816;20.538;2023-12-14T07:14:55;98729.09;;;10.74;100.00
66176;BME280;52977;44.816;20.538;2023-12-14T07:17:21;98752.47;;;10.88;100.00
66176;BME280;52977;44.816;20.538;2023-12-14T07:19:49;98761.16;;;10.77;100.00
66176;BME280;52977;44.816;20.538;2023-12-14T07:22:16;98761.69;;;10.55;100.00
66176;BME280;52977;44.816;20.538;2023-12-14T07:24:41;98766.03;;;10.31;100.00
66176;BME280;52977;44.816;20.538;2023-12-14T07:27:08;98749.31;;;10.20;100.00
66176;BME280;52977;44.816;20.538;2023-12-14T07:29:34;98736.38;;;10.17;100.00
66176;BME280;52977;44.816;20.538;2023-12-14T07:32:01;98773.59;;;10.25;100.00
66176;BME280;52977;44.816;20.538;2023-12-14T07:34:27;98779.97;;;10.30;100.00
66176;BME280;52977;44.816;20.538;2023-12-14T07:36:54;98794.44;;;10.42;100.00
66176;BME280;52977;44.816;20.538;2023-12-14T07:39:20;98756.13;;;10.02;100.00
66176;BME280;52977;44.816;20.538;2023-12-14T07:41:47;98794.56;;;10.09;100.00
66176;BME280;52977;44.816;20.538;2023-12-14T07:44:14;98789.53;;;9.99;100.00
66176;BME280;52977;44.816;20.538;2023-12-14T07:46:40;98794.63;;;10.00;100.00
66176;BME280;52977;44.816;20.538;2023-12-14T07:49:09;98807.28;;;10.17;100.00
66176;BME280;52977;44.816;20.538;2023-12-14T07:51:35;98809.19;;;10.29;100.00
66176;BME280;52977;44.816;20.538;2023-12-14T07:54:00;98810.00;;;10.42;100.00
66176;BME280;52977;44.816;20.538;2023-12-14T07:56:29;98806.28;;;10.34;100.00
66176;BME280;52977;44.816;20.538;2023-12-14T07:58:55;98794.06;;;10.07;100.00
66176;BME280;52977;44.816;20.538;2023-12-14T08:01:21;98812.47;;;10.10;100.00
66176;BME280;52977;44.816;20.538;2023-12-14T09:43:19;98900.34;;;9.49;100.00
66176;BME280;52977;44.816;20.538;2023-12-14T09:45:47;98947.97;;;9.85;100.00
66176;BME280;52977;44.816;20.538;2023-12-14T09:48:15;98934.50;;;9.67;100.00
66176;BME280;52977;44.816;20.538;2023-12-14T09:50:43;98936.75;;;9.65;100.00
66176;BME280;52977;44.816;20.538;2023-12-14T09:53:09;98940.06;;;9.71;100.00
66176;BME280;52977;44.816;20.538;2023-12-14T09:55:35;98911.72;;;9.51;100.00
66176;BME280;52977;44.816;20.538;2023-12-14T09:58:01;98919.75;;;9.47;100.00
66176;BME280;52977;44.816;20.538;2023-12-14T10:00:37;98913.31;;;9.10;100.00
66176;BME280;52977;44.816;20.538;2023-12-14T10:03:21;98949.41;;;9.28;100.00
66176;BME280;52977;44.816;20.538;2023-12-14T10:05:48;98897.84;;;9.01;100.00
66176;BME280;52977;44.816;20.538;2023-12-14T10:08:19;98900.03;;;8.87;100.00
66176;BME280;52977;44.816;20.538;2023-12-14T10:10:47;98949.41;;;9.28;100.00
66176;BME280;52977;44.816;20.538;2023-12-14T10:13:15;98910.75;;;8.92;100.00
66176;BME280;52977;44.816;20.538;2023-12-14T10:15:45;98964.69;;;9.20;100.00
66176;BME280;52977;44.816;20.538;2023-12-14T10:18:21;98943.28;;;9.10;100.00
66176;BME280;52977;44.816;20.538;2023-12-14T10:20:48;98975.50;;;9.29;100.00
66176;BME280;52977;44.816;20.538;2023-12-14T10:23:15;98976.97;;;9.26;100.00
66176;BME280;52977;44.816;20.538;2023-12-14T10:25:42;98952.94;;;9.07;100.00
66176;BME280;52977;44.816;20.538;2023-12-14T10:28:14;98988.94;;;9.34;100.00
66176;BME280;52977;44.816;20.538;2023-12-14T10:30:41;98979.03;;;9.29;100.00
66176;BME280;52977;44.816;20.538;2023-12-14T10:33:08;98989.66;;;9.43;100.00
66176;BME280;52977;44.816;20.538;2023-12-14T10:35:35;98971.72;;;9.21;100.00
66176;BME280;52977;44.816;20.538;2023-12-14T10:38:03;99007.50;;;9.40;100.00
66176;BME280;52977;44.816;20.538;2023-12-14T10:40:34;99007.78;;;9.39;100.00
66176;BME280;52977;44.816;20.538;2023-12-14T10:43:03;98986.75;;;9.27;100.00
66176;BME280;52977;44.816;20.538;2023-12-14T10:45:32;98970.72;;;9.04;100.00
66176;BME280;52977;44.816;20.538;2023-12-14T10:47:59;98962.13;;;8.94;100.00
66176;BME280;52977;44.816;20.538;2023-12-14T10:50:29;99022.41;;;9.34;100.00
66176;BME280;52977;44.816;20.538;2023-12-14T10:52:59;98910.38;;;8.72;100.00
66176;BME280;52977;44.816;20.538;2023-12-14T10:55:35;98952.28;;;9.01;100.00
66176;BME280;52977;44.816;20.538;2023-12-14T10:58:08;98961.81;;;9.16;100.00
66176;BME280;52977;44.816;20.538;2023-12-14T11:00:35;99005.56;;;9.41;100.00
66176;BME280;52977;44.816;20.538;2023-12-14T11:03:04;98951.19;;;8.72;100.00
66176;BME280;52977;44.816;20.538;2023-12-14T11:05:33;99017.31;;;9.54;100.00
66176;BME280;52977;44.816;20.538;2023-12-14T11:08:01;99010.81;;;9.67;100.00
66176;BME280;52977;44.816;20.538;2023-12-14T11:10:37;99018.84;;;9.64;100.00
66176;BME280;52977;44.816;20.538;2023-12-14T11:13:12;99012.00;;;9.57;100.00
66176;BME280;52977;44.816;20.538;2023-12-14T11:15:46;99019.50;;;9.61;100.00
66176;BME280;52977;44.816;20.538;2023-12-14T11:23:36;98955.50;;;9.24;100.00
66176;BME280;52977;44.816;20.538;2023-12-14T11:26:06;99013.28;;;9.60;100.00
66176;BME280;52977;44.816;20.538;2023-12-14T11:28:39;98984.34;;;9.47;100.00
66176;BME280;52977;44.816;20.538;2023-12-14T11:31:10;98996.03;;;9.26;100.00
66176;BME280;52977;44.816;20.538;2023-12-14T11:33:38;98989.88;;;9.38;100.00
66176;BME280;52977;44.816;20.538;2023-12-14T11:36:06;98930.13;;;9.12;100.00
66176;BME280;52977;44.816;20.538;2023-12-14T11:38:35;99030.88;;;9.84;100.00
66176;BME280;52977;44.816;20.538;2023-12-14T11:41:04;98991.16;;;9.40;100.00
66176;BME280;52977;44.816;20.538;2023-12-14T11:43:39;99024.88;;;9.69;100.00
66176;BME280;52977;44.816;20.538;2023-12-14T11:46:05;99017.84;;;9.68;100.00
66176;BME280;52977;44.816;20.538;2023-12-14T11:48:35;99042.72;;;9.88;100.00
66176;BME280;52977;44.816;20.538;2023-12-14T11:51:01;99030.47;;;9.94;100.00
66176;BME280;52977;44.816;20.538;2023-12-14T11:53:29;98901.78;;;9.13;100.00
66176;BME280;52977;44.816;20.538;2023-12-14T11:55:56;99035.63;;;10.08;100.00
66176;BME280;52977;44.816;20.538;2023-12-14T11:58:24;99023.31;;;9.89;100.00
66176;BME280;52977;44.816;20.538;2023-12-14T12:00:51;99053.72;;;10.13;100.00
66176;BME280;52977;44.816;20.538;2023-12-14T12:03:19;99026.81;;;9.90;100.00
66176;BME280;52977;44.816;20.538;2023-12-14T12:05:48;98997.53;;;9.66;100.00
66176;BME280;52977;44.816;20.538;2023-12-14T12:08:16;99057.31;;;10.04;100.00
66176;BME280;52977;44.816;20.538;2023-12-14T12:10:45;98977.63;;;9.44;100.00
66176;BME280;52977;44.816;20.538;2023-12-14T12:13:17;99031.66;;;9.84;100.00
66176;BME280;52977;44.816;20.538;2023-12-14T12:15:44;99029.09;;;9.88;100.00
66176;BME280;52977;44.816;20.538;2023-12-14T12:18:11;99013.72;;;9.83;100.00
66176;BME280;52977;44.816;20.538;2023-12-14T12:20:38;99035.84;;;10.03;100.00
66176;BME280;52977;44.816;20.538;2023-12-14T12:23:05;99030.47;;;9.94;100.00
66176;BME280;52977;44.816;20.538;2023-12-14T12:25:32;99029.09;;;9.88;100.00
66176;BME280;52977;44.816;20.538;2023-12-14T12:28:00;99019.69;;;9.77;100.00
66176;BME280;52977;44.816;20.538;2023-12-14T12:30:27;99033.47;;;9.80;100.00
66176;BME280;52977;44.816;20.538;2023-12-14T12:32:54;99031.47;;;9.68;100.00
66176;BME280;52977;44.816;20.538;2023-12-14T12:35:27;99048.19;;;9.88;100.00
66176;BME280;52977;44.816;20.538;2023-12-14T12:37:56;99058.59;;;9.86;100.00
66176;BME280;52977;44.816;20.538;2023-12-14T12:40:23;99058.78;;;9.81;100.00
66176;BME280;52977;44.816;20.538;2023-12-14T12:42:51;99059.06;;;9.88;100.00
66176;BME280;52977;44.816;20.538;2023-12-14T12:45:18;99057.00;;;9.85;100.00
66176;BME280;52977;44.816;20.538;2023-12-14T12:47:45;99063.97;;;9.73;100.00
66176;BME280;52977;44.816;20.538;2023-12-14T12:50:14;99044.44;;;9.50;100.00
66176;BME280;52977;44.816;20.538;2023-12-14T12:52:40;99064.91;;;9.78;100.00
66176;BME280;52977;44.816;20.538;2023-12-14T12:55:08;99054.28;;;9.85;100.00
66176;BME280;52977;44.816;20.538;2023-12-14T12:57:36;98981.06;;;9.96;100.00
66176;BME280;52977;44.816;20.538;2023-12-14T13:00:03;99086.88;;;11.27;100.00
66176;BME280;52977;44.816;20.538;2023-12-14T13:02:40;99080.16;;;11.90;100.00
66176;BME280;52977;44.816;20.538;2023-12-14T13:05:07;98981.69;;;11.62;100.00
66176;BME280;52977;44.816;20.538;2023-12-14T13:07:34;99055.34;;;12.24;100.00
66176;BME280;52977;44.816;20.538;2023-12-14T13:10:01;98996.13;;;12.31;100.00
66176;BME280;52977;44.816;20.538;2023-12-14T13:12:27;99045.78;;;12.62;100.00
66176;BME280;52977;44.816;20.538;2023-12-14T13:14:54;99062.44;;;12.85;100.00
66176;BME280;52977;44.816;20.538;2023-12-14T13:17:20;99023.84;;;12.46;100.00
66176;BME280;52977;44.816;20.538;2023-12-14T13:19:46;99038.03;;;13.12;100.00
66176;BME280;52977;44.816;20.538;2023-12-14T13:22:13;99064.94;;;13.58;99.61
66176;BME280;52977;44.816;20.538;2023-12-14T13:24:39;99070.09;;;13.43;98.13
66176;BME280;52977;44.816;20.538;2023-12-14T13:27:06;99059.66;;;13.17;99.61
66176;BME280;52977;44.816;20.538;2023-12-14T13:29:32;99080.63;;;13.41;100.00
66176;BME280;52977;44.816;20.538;2023-12-14T13:32:01;98999.13;;;13.06;99.18
66176;BME280;52977;44.816;20.538;2023-12-14T13:34:28;99088.66;;;13.50;98.05
66176;BME280;52977;44.816;20.538;2023-12-14T13:36:55;99082.38;;;13.18;97.60
66176;BME280;52977;44.816;20.538;2023-12-14T13:39:22;99104.13;;;13.42;100.00
66176;BME280;52977;44.816;20.538;2023-12-14T13:41:48;99095.53;;;13.60;97.62
66176;BME280;52977;44.816;20.538;2023-12-14T13:44:15;99040.81;;;13.47;97.31
66176;BME280;52977;44.816;20.538;2023-12-14T13:46:41;99090.59;;;14.05;93.51
66176;BME280;52977;44.816;20.538;2023-12-14T13:49:07;99087.38;;;14.18;90.39
66176;BME280;52977;44.816;20.538;2023-12-14T13:51:34;99086.78;;;14.09;89.87
66176;BME280;52977;44.816;20.538;2023-12-14T13:54:00;99057.59;;;13.62;89.74
66176;BME280;52977;44.816;20.538;2023-12-14T13:56:26;99103.41;;;12.81;95.21
66176;BME280;52977;44.816;20.538;2023-12-14T13:58:54;99136.34;;;12.41;97.42
66176;BME280;52977;44.816;20.538;2023-12-14T14:01:20;99104.13;;;12.22;100.00
66176;BME280;52977;44.816;20.538;2023-12-14T14:03:47;99138.94;;;12.09;100.00
66176;BME280;52977;44.816;20.538;2023-12-14T14:06:14;99164.63;;;11.67;100.00
66176;BME280;52977;44.816;20.538;2023-12-14T14:08:41;99173.94;;;11.29;100.00
66176;BME280;52977;44.816;20.538;2023-12-14T14:11:07;99169.09;;;10.89;100.00
66176;BME280;52977;44.816;20.538;2023-12-14T14:13:33;99130.41;;;10.32;100.00
66176;BME280;52977;44.816;20.538;2023-12-14T14:16:00;99100.34;;;9.78;100.00
66176;BME280;52977;44.816;20.538;2023-12-14T14:18:26;99188.91;;;10.43;100.00
66176;BME280;52977;44.816;20.538;2023-12-14T14:20:52;99187.84;;;10.57;100.00
66176;BME280;52977;44.816;20.538;2023-12-14T14:23:18;99199.59;;;10.70;100.00
66176;BME280;52977;44.816;20.538;2023-12-14T14:25:43;99189.38;;;11.00;100.00
66176;BME280;52977;44.816;20.538;2023-12-14T14:28:10;99197.38;;;11.30;100.00